Time;durP1;ratioP1;P1;durP2;ratioP2;P2;SDS_P1;SDS_P2;PMS_P1;PMS_P2;Temp;Humidity;BMP_temperature;BMP_pressure;BME280_temperature;BME280_humidity;BME280_pressure;Samples;Min_cycle;Max_cycle;Signal;HPM_P1;HPM_P2
2023/08/22 00:02:03;;;;;;;3.80;1.88;;;16.70;1.00;;;;;;4994835;28;20113;-73
2023/08/22 00:04:28;;;;;;;3.35;1.63;;;16.70;1.00;;;;;;4951577;28;20039;-73
2023/08/22 00:06:54;;;;;;;4.05;2.00;;;16.70;1.00;;;;;;5001679;28;20172;-73
2023/08/22 00:09:19;;;;;;;5.55;1.85;;;16.80;1.00;;;;;;4965964;28;20424;-73
2023/08/22 00:11:45;;;;;;;3.50;1.83;;;16.80;1.00;;;;;;4983520;28;20141;-73
2023/08/22 00:14:11;;;;;;;5.88;2.85;;;16.80;1.00;;;;;;4968276;28;20046;-73
2023/08/22 00:16:36;;;;;;;5.38;2.47;;;16.90;1.00;;;;;;4982428;28;20053;-73
2023/08/22 00:19:03;;;;;;;4.85;1.95;;;16.90;1.00;;;;;;4966107;28;20600;-73
2023/08/22 00:21:30;;;;;;;5.00;2.10;;;16.80;1.00;;;;;;4968133;28;20053;-73
2023/08/22 00:23:56;;;;;;;2.80;1.85;;;16.80;1.00;;;;;;4983788;28;20086;-73
2023/08/22 00:26:22;;;;;;;3.70;2.30;;;16.80;1.00;;;;;;4984381;28;20465;-73
2023/08/22 00:28:48;;;;;;;7.68;2.42;;;16.80;1.00;;;;;;4968113;28;20051;-73
2023/08/22 00:31:14;;;;;;;4.45;2.03;;;16.70;1.00;;;;;;4949515;28;20050;-73
2023/08/22 00:33:40;;;;;;;4.97;2.17;;;16.50;1.00;;;;;;4968508;28;20121;-73
2023/08/22 00:36:05;;;;;;;8.45;2.55;;;16.50;1.00;;;;;;4980837;28;20034;-73
2023/08/22 00:38:31;;;;;;;3.88;2.20;;;16.40;1.00;;;;;;4970309;28;20533;-72
2023/08/22 00:40:56;;;;;;;6.60;2.47;;;16.40;1.00;;;;;;4984768;28;20034;-73
2023/08/22 00:43:22;;;;;;;4.22;2.42;;;16.40;1.00;;;;;;4969036;28;20516;-73
2023/08/22 00:45:48;;;;;;;4.32;2.53;;;16.40;1.00;;;;;;4989189;28;20447;-73
2023/08/22 00:48:14;;;;;;;5.32;2.30;;;16.40;1.00;;;;;;4994447;28;20046;-73
2023/08/22 00:50:40;;;;;;;6.97;3.22;;;16.40;1.00;;;;;;4991464;28;20707;-73
2023/08/22 00:53:07;;;;;;;4.88;2.55;;;16.40;1.00;;;;;;4980993;28;20042;-73
2023/08/22 00:55:32;;;;;;;5.57;3.20;;;16.40;1.00;;;;;;4984831;28;20611;-73
2023/08/22 00:57:58;;;;;;;6.70;2.97;;;16.40;1.00;;;;;;4973601;28;20050;-73
2023/08/22 01:00:24;;;;;;;6.03;2.83;;;16.50;1.00;;;;;;4949212;28;20063;-73
2023/08/22 01:02:50;;;;;;;6.50;3.03;;;16.40;1.00;;;;;;4973493;28;20049;-73
2023/08/22 01:05:15;;;;;;;4.25;2.88;;;16.50;1.00;;;;;;4990800;28;20046;-73
2023/08/22 01:07:49;;;;;;;4.78;2.17;;;16.50;1.00;;;;;;4975599;28;20065;-73
2023/08/22 01:10:21;;;;;;;4.60;2.88;;;16.50;1.00;;;;;;4972139;28;20050;-73
2023/08/22 01:12:53;;;;;;;7.75;3.25;;;16.50;1.00;;;;;;4968524;28;20048;-73
2023/08/22 01:15:25;;;;;;;5.47;3.25;;;16.50;1.00;;;;;;4992028;28;20120;-72
2023/08/22 01:17:56;;;;;;;5.28;3.00;;;16.60;1.00;;;;;;4983540;28;20050;-72
2023/08/22 01:20:24;;;;;;;7.90;2.95;;;16.60;1.00;;;;;;4968931;28;20058;-73
2023/08/22 01:22:51;;;;;;;4.68;3.83;;;16.60;1.00;;;;;;4972507;28;20044;-73
2023/08/22 01:25:16;;;;;;;3.33;2.03;;;16.60;1.00;;;;;;4985764;28;20126;-73
2023/08/22 01:28:00;;;;;;;3.53;2.22;;;16.70;1.00;;;;;;4986440;28;20125;-73
2023/08/22 01:30:46;;;;;;;3.60;2.10;;;16.70;1.00;;;;;;4987309;28;20108;-73
2023/08/22 01:33:19;;;;;;;4.25;2.42;;;16.70;1.00;;;;;;4964674;28;20506;-73
2023/08/22 01:35:49;;;;;;;3.80;2.28;;;16.60;1.00;;;;;;4980885;28;20165;-73
2023/08/22 01:38:17;;;;;;;4.18;2.20;;;16.50;1.00;;;;;;4983027;28;20058;-72
2023/08/22 01:40:43;;;;;;;5.65;2.13;;;16.40;1.00;;;;;;4996521;28;20050;-73
2023/08/22 01:43:09;;;;;;;3.03;2.28;;;16.40;1.00;;;;;;4980058;28;20045;-73
2023/08/22 01:45:35;;;;;;;4.50;2.67;;;16.40;1.00;;;;;;5002926;28;20393;-73
2023/08/22 01:48:00;;;;;;;2.90;2.00;;;16.30;1.00;;;;;;4980459;28;20038;-73
2023/08/22 01:50:26;;;;;;;3.95;2.40;;;16.30;1.00;;;;;;4989968;28;20165;-73
2023/08/22 01:52:52;;;;;;;4.88;2.67;;;16.30;1.00;;;;;;4991456;28;20081;-73
2023/08/22 01:55:19;;;;;;;4.53;2.53;;;16.30;1.00;;;;;;4987844;28;20088;-73
2023/08/22 01:57:45;;;;;;;4.22;2.20;;;16.30;1.00;;;;;;4969609;28;20042;-73
2023/08/22 02:00:11;;;;;;;5.10;2.78;;;16.30;1.00;;;;;;4987720;28;20047;-73
2023/08/22 02:02:37;;;;;;;4.63;2.95;;;16.30;1.00;;;;;;4985740;28;20069;-72
2023/08/22 02:05:02;;;;;;;6.55;2.75;;;16.20;1.00;;;;;;5006216;28;20038;-73
2023/08/22 02:07:28;;;;;;;5.28;2.70;;;16.30;1.00;;;;;;4992988;28;20413;-73
2023/08/22 02:09:54;;;;;;;5.00;2.58;;;16.30;1.00;;;;;;5003619;28;20042;-73
2023/08/22 02:12:20;;;;;;;4.07;2.83;;;16.20;1.00;;;;;;4989430;28;20038;-73
2023/08/22 02:14:45;;;;;;;6.30;3.35;;;16.20;1.00;;;;;;4991089;28;20058;-73
2023/08/22 02:17:11;;;;;;;5.82;3.30;;;16.20;1.00;;;;;;4984445;28;20456;-73
2023/08/22 02:19:36;;;;;;;5.95;3.92;;;16.20;1.00;;;;;;4973403;28;20042;-73
2023/08/22 02:22:02;;;;;;;6.05;3.40;;;16.10;1.00;;;;;;4985715;28;20073;-73
2023/08/22 02:24:28;;;;;;;4.93;3.45;;;16.10;1.00;;;;;;4986522;28;20520;-73
2023/08/22 02:26:54;;;;;;;6.93;3.40;;;16.10;1.00;;;;;;4993742;28;20051;-73
2023/08/22 02:29:19;;;;;;;5.35;3.35;;;16.00;1.00;;;;;;4951314;28;20592;-73
2023/08/22 02:31:45;;;;;;;6.97;3.70;;;16.00;1.00;;;;;;4968131;28;20045;-73
2023/08/22 02:34:11;;;;;;;5.55;3.22;;;16.00;1.00;;;;;;4995269;28;20121;-73
2023/08/22 02:36:36;;;;;;;5.68;3.95;;;16.00;1.00;;;;;;4985175;28;20126;-72
2023/08/22 02:39:03;;;;;;;6.72;3.50;;;15.90;1.00;;;;;;5002431;28;20496;-72
2023/08/22 02:41:29;;;;;;;6.72;3.60;;;15.90;1.00;;;;;;5002538;28;20050;-72
2023/08/22 02:43:54;;;;;;;5.60;3.55;;;15.80;1.00;;;;;;4986207;28;20115;-72
2023/08/22 02:46:20;;;;;;;7.38;3.70;;;15.80;1.00;;;;;;5003860;28;20038;-72
2023/08/22 02:48:45;;;;;;;7.30;3.72;;;15.80;1.00;;;;;;4982860;28;20768;-72
2023/08/22 02:51:11;;;;;;;9.70;3.70;;;15.80;1.00;;;;;;4986613;28;20050;-73
2023/08/22 02:53:37;;;;;;;6.25;3.92;;;15.70;1.00;;;;;;5002022;28;20121;-72
2023/08/22 02:56:04;;;;;;;7.40;3.58;;;15.70;1.00;;;;;;4985309;28;20096;-72
2023/08/22 02:58:30;;;;;;;7.13;4.10;;;15.60;1.00;;;;;;4969514;28;20041;-72
2023/08/22 03:00:56;;;;;;;7.65;4.20;;;15.60;1.00;;;;;;4985601;28;20133;-72
2023/08/22 03:03:22;;;;;;;9.38;3.75;;;15.60;1.00;;;;;;4985910;28;20120;-73
2023/08/22 03:05:48;;;;;;;6.93;4.07;;;15.60;1.00;;;;;;5005490;28;20564;-72
2023/08/22 03:08:13;;;;;;;7.55;3.50;;;15.60;1.00;;;;;;4982486;28;20125;-72
2023/08/22 03:10:40;;;;;;;5.80;3.50;;;15.60;1.00;;;;;;4987017;28;20133;-72
2023/08/22 03:13:06;;;;;;;7.28;3.70;;;15.60;1.00;;;;;;4973102;28;20049;-72
2023/08/22 03:15:31;;;;;;;9.70;3.60;;;15.60;1.00;;;;;;4990476;28;20125;-72
2023/08/22 03:17:57;;;;;;;5.65;3.58;;;15.60;1.00;;;;;;4982370;28;20042;-72
2023/08/22 03:20:23;;;;;;;5.30;3.47;;;15.70;1.00;;;;;;4985956;28;20046;-72
2023/08/22 03:22:48;;;;;;;4.90;3.38;;;15.60;1.00;;;;;;4982605;28;20035;-73
2023/08/22 03:25:14;;;;;;;5.40;3.22;;;15.60;1.00;;;;;;4982355;28;20100;-72
2023/08/22 03:27:40;;;;;;;6.78;3.40;;;15.60;1.00;;;;;;4992038;28;20125;-73
2023/08/22 03:30:06;;;;;;;4.40;3.55;;;15.50;1.00;;;;;;4973475;28;20113;-72
2023/08/22 03:32:31;;;;;;;4.95;3.00;;;15.40;1.00;;;;;;4999255;28;20505;-72
2023/08/22 03:34:57;;;;;;;5.43;3.30;;;15.40;1.00;;;;;;4985815;28;20129;-72
2023/08/22 03:37:23;;;;;;;5.13;3.15;;;15.20;1.00;;;;;;4969556;28;20054;-72
2023/08/22 03:39:48;;;;;;;6.40;3.22;;;15.20;1.00;;;;;;4985907;28;20073;-72
2023/08/22 03:42:14;;;;;;;5.07;2.70;;;15.10;1.00;;;;;;4984969;28;20133;-72
2023/08/22 03:44:39;;;;;;;4.72;3.40;;;14.90;1.00;;;;;;4976294;28;20374;-72
2023/08/22 03:47:05;;;;;;;5.78;3.25;;;14.80;1.00;;;;;;5000450;28;20057;-72
2023/08/22 03:49:30;;;;;;;4.05;3.30;;;14.70;1.80;;;;;;5001141;28;20417;-72
2023/08/22 03:51:56;;;;;;;6.70;3.70;;;14.60;7.00;;;;;;4983298;28;20047;-72
2023/08/22 03:54:22;;;;;;;6.40;3.63;;;14.60;16.30;;;;;;4983096;28;20038;-72
2023/08/22 03:56:47;;;;;;;9.18;4.07;;;14.60;24.20;;;;;;4987463;28;20120;-72
2023/08/22 03:59:13;;;;;;;5.55;3.50;;;14.40;29.80;;;;;;4986728;28;20512;-72
2023/08/22 04:01:39;;;;;;;6.55;3.63;;;14.40;35.00;;;;;;4984835;28;20038;-72
2023/08/22 04:04:04;;;;;;;6.10;3.22;;;14.30;43.70;;;;;;4968665;28;20038;-73
2023/08/22 04:06:30;;;;;;;5.53;3.72;;;14.20;49.70;;;;;;4996298;28;20052;-72
2023/08/22 04:08:55;;;;;;;6.22;3.42;;;14.30;52.40;;;;;;4985748;28;20052;-73
2023/08/22 04:11:21;;;;;;;5.65;3.65;;;14.20;56.10;;;;;;4985053;28;20042;-72
2023/08/22 04:13:47;;;;;;;7.05;3.70;;;14.20;57.40;;;;;;4969460;28;20038;-72
2023/08/22 04:16:12;;;;;;;4.68;3.55;;;14.10;60.30;;;;;;4986453;28;20050;-72
2023/08/22 04:18:38;;;;;;;6.25;4.07;;;14.00;64.50;;;;;;4984931;28;20058;-72
2023/08/22 04:21:04;;;;;;;9.10;4.00;;;14.10;68.60;;;;;;4969819;28;20042;-72
2023/08/22 04:23:29;;;;;;;5.53;3.78;;;14.00;72.30;;;;;;4984577;28;20118;-72
2023/08/22 04:25:55;;;;;;;4.70;3.20;;;13.90;76.50;;;;;;4992827;28;20030;-72
2023/08/22 04:28:21;;;;;;;7.18;3.70;;;13.90;79.80;;;;;;4985786;28;20066;-72
2023/08/22 04:30:46;;;;;;;4.25;2.72;;;13.80;80.80;;;;;;5001296;28;20389;-72
2023/08/22 04:33:12;;;;;;;3.33;2.67;;;13.80;84.10;;;;;;4999665;28;20046;-72
2023/08/22 04:35:38;;;;;;;5.00;2.53;;;13.80;89.80;;;;;;4986654;28;20097;-72
2023/08/22 04:38:04;;;;;;;6.28;3.17;;;13.80;91.60;;;;;;4971934;28;20077;-72
2023/08/22 04:40:30;;;;;;;4.93;3.05;;;13.70;91.80;;;;;;5000211;28;20129;-72
2023/08/22 04:42:55;;;;;;;5.95;3.45;;;13.70;93.00;;;;;;4985170;28;20149;-71
2023/08/22 04:45:21;;;;;;;9.30;3.95;;;13.70;93.80;;;;;;4992638;28;20057;-72
2023/08/22 04:47:46;;;;;;;5.80;3.53;;;13.70;94.50;;;;;;4990933;28;20427;-72
2023/08/22 04:50:12;;;;;;;8.02;4.13;;;13.70;96.20;;;;;;5011839;28;20072;-72
2023/08/22 04:52:38;;;;;;;7.72;3.58;;;13.60;97.20;;;;;;4980402;28;20042;-72
2023/08/22 04:55:04;;;;;;;4.78;3.03;;;13.60;98.60;;;;;;4992232;28;20684;-73
2023/08/22 04:57:31;;;;;;;4.55;2.35;;;13.60;99.50;;;;;;4988461;28;20046;-72
2023/08/22 04:59:56;;;;;;;4.80;2.80;;;13.60;99.90;;;;;;4990625;28;20043;-72
2023/08/22 05:02:22;;;;;;;6.25;3.45;;;13.60;99.90;;;;;;4983391;28;20034;-72
2023/08/22 05:04:48;;;;;;;7.50;3.35;;;13.60;99.90;;;;;;4990229;28;20432;-71
2023/08/22 05:07:14;;;;;;;5.47;3.40;;;13.60;99.90;;;;;;4988452;28;20039;-72
2023/08/22 05:09:39;;;;;;;5.25;3.63;;;13.70;99.90;;;;;;5008353;28;20057;-72
2023/08/22 05:12:05;;;;;;;6.32;3.90;;;13.80;99.90;;;;;;5002699;28;20033;-72
2023/08/22 05:14:33;;;;;;;6.53;3.60;;;13.80;99.90;;;;;;4977228;28;20497;-72
2023/08/22 05:16:58;;;;;;;7.47;4.18;;;13.90;99.90;;;;;;4990516;28;20624;-72
2023/08/22 05:19:24;;;;;;;8.75;4.15;;;13.90;99.90;;;;;;5010392;28;20059;-71
2023/08/22 05:21:50;;;;;;;7.88;4.55;;;13.90;99.90;;;;;;5003552;28;20045;-72
2023/08/22 05:24:15;;;;;;;8.25;5.90;;;13.90;99.90;;;;;;5007875;28;20113;-72
2023/08/22 05:26:41;;;;;;;9.70;5.28;;;14.00;99.90;;;;;;4990439;28;20038;-72
2023/08/22 05:29:06;;;;;;;9.88;5.43;;;13.90;99.90;;;;;;5007934;28;20062;-72
2023/08/22 05:31:33;;;;;;;8.85;5.47;;;14.00;99.90;;;;;;4997294;28;20050;-72
2023/08/22 05:33:58;;;;;;;8.95;5.88;;;14.00;99.90;;;;;;4991273;28;20091;-72
2023/08/22 05:36:24;;;;;;;8.15;5.43;;;14.10;99.90;;;;;;4989597;28;20869;-72
2023/08/22 05:38:49;;;;;;;8.15;5.75;;;14.20;99.90;;;;;;4992041;28;20042;-72
2023/08/22 05:41:16;;;;;;;6.15;4.28;;;14.20;99.90;;;;;;4991717;28;20415;-72
2023/08/22 05:43:42;;;;;;;5.68;3.17;;;14.30;99.90;;;;;;4990924;28;20042;-72
2023/08/22 05:46:08;;;;;;;6.13;3.10;;;14.50;99.90;;;;;;5003508;28;20037;-72
2023/08/22 05:48:33;;;;;;;6.00;3.22;;;14.60;99.90;;;;;;4995448;28;20045;-72
2023/08/22 05:51:01;;;;;;;8.10;3.60;;;14.80;99.90;;;;;;4991841;28;20049;-71
2023/08/22 05:53:27;;;;;;;4.80;3.47;;;15.00;99.90;;;;;;4991109;28;20053;-72
2023/08/22 05:55:53;;;;;;;6.18;3.53;;;15.10;99.90;;;;;;4967185;28;20042;-72
2023/08/22 05:58:18;;;;;;;10.25;6.43;;;15.30;99.90;;;;;;5000359;28;20496;-72
2023/08/22 06:00:44;;;;;;;12.77;7.03;;;15.60;99.90;;;;;;4986443;28;20049;-72
2023/08/22 06:03:10;;;;;;;11.52;7.25;;;15.80;99.90;;;;;;4988805;28;20038;-72
2023/08/22 06:05:35;;;;;;;8.73;6.68;;;16.10;99.90;;;;;;4986865;28;20042;-72
2023/08/22 06:08:01;;;;;;;10.02;7.55;;;16.30;99.90;;;;;;4987098;28;20042;-72
2023/08/22 06:10:26;;;;;;;14.20;7.57;;;16.60;99.90;;;;;;4988612;28;20463;-72
2023/08/22 06:12:52;;;;;;;12.52;7.65;;;16.90;99.90;;;;;;4988570;28;20035;-72
2023/08/22 06:15:18;;;;;;;11.20;6.78;;;17.10;99.90;;;;;;4985523;28;20695;-71
2023/08/22 06:17:43;;;;;;;20.20;8.60;;;17.30;99.90;;;;;;4977688;28;20081;-72
2023/08/22 06:20:09;;;;;;;12.10;7.30;;;17.50;99.90;;;;;;5007793;28;20180;-72
2023/08/22 06:22:35;;;;;;;11.68;6.40;;;17.70;99.90;;;;;;5007787;28;20385;-72
2023/08/22 06:25:04;;;;;;;11.13;6.30;;;17.80;99.90;;;;;;5000976;28;20039;-72
2023/08/22 06:27:30;;;;;;;10.27;6.10;;;17.80;99.90;;;;;;4986565;28;20057;-70
2023/08/22 06:29:56;;;;;;;11.98;6.00;;;17.90;99.90;;;;;;5006365;28;20049;-72
2023/08/22 06:32:22;;;;;;;9.32;6.10;;;17.90;99.90;;;;;;5007693;28;20401;-72
2023/08/22 06:34:48;;;;;;;10.32;6.25;;;17.90;82.60;;;;;;5005174;28;20500;-72
2023/08/22 06:37:13;;;;;;;12.50;6.78;;;17.70;69.90;;;;;;4984181;28;20061;-72
2023/08/22 06:39:39;;;;;;;8.65;5.60;;;17.70;63.80;;;;;;4993570;28;20046;-72
2023/08/22 06:42:05;;;;;;;9.65;6.13;;;17.60;59.40;;;;;;4986365;28;20714;-72
2023/08/22 06:44:31;;;;;;;8.07;5.70;;;17.50;53.30;;;;;;4971710;28;20035;-72
2023/08/22 06:46:57;;;;;;;9.60;5.70;;;17.40;50.30;;;;;;4984324;28;20549;-72
2023/08/22 06:49:22;;;;;;;8.98;5.75;;;17.30;51.90;;;;;;4997553;28;20041;-72
2023/08/22 06:51:48;;;;;;;7.82;5.32;;;17.30;57.40;;;;;;5001462;28;20030;-72
2023/08/22 06:54:13;;;;;;;8.23;4.90;;;17.30;69.80;;;;;;4987955;28;20038;-72
2023/08/22 06:56:39;;;;;;;7.90;5.57;;;17.40;74.40;;;;;;4986552;28;20042;-72
2023/08/22 06:59:05;;;;;;;10.40;5.25;;;17.50;73.90;;;;;;4993223;28;20076;-71
2023/08/22 07:01:30;;;;;;;9.40;6.05;;;17.60;71.20;;;;;;5007107;28;20042;-71
2023/08/22 07:03:56;;;;;;;10.05;4.97;;;17.70;70.50;;;;;;5004676;28;20046;-71
2023/08/22 07:06:22;;;;;;;9.45;4.82;;;17.90;57.30;;;;;;4999621;28;20492;-72
2023/08/22 07:08:47;;;;;;;11.05;4.50;;;18.10;39.70;;;;;;4983958;28;20049;-72
2023/08/22 07:11:13;;;;;;;9.50;4.30;;;18.30;28.00;;;;;;4975029;28;20045;-72
2023/08/22 07:13:39;;;;;;;7.75;4.55;;;18.50;19.00;;;;;;4968081;28;20409;-72
2023/08/22 07:16:04;;;;;;;9.10;4.53;;;18.70;1.00;;;;;;4985454;28;20552;-72
2023/08/22 07:18:30;;;;;;;8.88;4.63;;;18.90;1.00;;;;;;4987454;28;20139;-72
2023/08/22 07:20:56;;;;;;;6.93;4.30;;;19.10;1.00;;;;;;4986963;28;20038;-72
2023/08/22 07:23:22;;;;;;;10.73;4.57;;;19.20;1.00;;;;;;4987392;28;20043;-72
2023/08/22 07:25:51;;;;;;;5.70;3.70;;;19.30;1.00;;;;;;4987069;28;20057;-72
2023/08/22 07:28:17;;;;;;;6.72;3.40;;;19.40;1.00;;;;;;4993219;28;20683;-72
2023/08/22 07:30:47;;;;;;;6.05;3.95;;;19.40;1.00;;;;;;4987749;28;20058;-72
2023/08/22 07:33:13;;;;;;;5.43;3.60;;;19.60;1.00;;;;;;5006491;28;20053;-72
2023/08/22 07:35:40;;;;;;;7.05;3.63;;;19.70;99.90;;;;;;5002650;28;20045;-70
2023/08/22 07:38:06;;;;;;;6.03;3.33;;;19.90;99.90;;;;;;4981216;28;20129;-72
2023/08/22 07:40:35;;;;;;;6.60;3.30;;;20.10;99.90;;;;;;4996273;28;20125;-72
2023/08/22 07:43:01;;;;;;;6.20;3.88;;;20.20;99.90;;;;;;5006342;28;20084;-72
2023/08/22 07:45:27;;;;;;;7.88;3.40;;;20.40;99.90;;;;;;4992790;28;20050;-72
2023/08/22 07:47:53;;;;;;;9.43;3.30;;;20.50;66.70;;;;;;4985039;28;20042;-73
2023/08/22 07:50:19;;;;;;;5.25;3.30;;;20.70;1.00;;;;;;4984217;28;20046;-72
2023/08/22 07:52:45;;;;;;;6.60;2.90;;;20.90;1.00;;;;;;4986639;28;20058;-72
2023/08/22 07:55:11;;;;;;;11.27;4.32;;;21.00;1.00;;;;;;4987083;28;20404;-71
2023/08/22 07:57:39;;;;;;;7.80;4.05;;;21.10;1.00;;;;;;4985715;28;20521;-71
2023/08/22 08:00:12;;;;;;;5.78;3.40;;;21.30;1.00;;;;;;4987639;28;20034;-72
2023/08/22 08:02:41;;;;;;;5.38;2.95;;;21.40;1.00;;;;;;4985992;28;20611;-72
2023/08/22 08:05:07;;;;;;;5.60;3.45;;;21.40;1.00;;;;;;4982715;28;20044;-72
2023/08/22 08:07:33;;;;;;;5.50;3.05;;;21.60;99.90;;;;;;4986486;28;20457;-72
2023/08/22 08:09:58;;;;;;;3.97;2.78;;;21.60;99.90;;;;;;4986399;28;20068;-72
2023/08/22 08:12:24;;;;;;;9.32;3.00;;;21.70;99.90;;;;;;4986350;28;20560;-72
2023/08/22 08:14:50;;;;;;;5.60;2.78;;;21.80;99.90;;;;;;4986391;28;20109;-72
2023/08/22 08:17:19;;;;;;;7.47;3.67;;;21.80;99.90;;;;;;5000863;28;20053;-72
2023/08/22 08:19:45;;;;;;;6.55;3.20;;;21.80;99.90;;;;;;4988924;28;20050;-71
2023/08/22 08:22:11;;;;;;;10.55;3.25;;;21.80;99.90;;;;;;4979121;28;20114;-72
2023/08/22 08:24:40;;;;;;;6.22;2.75;;;21.90;99.90;;;;;;4992299;28;20137;-72
2023/08/22 08:27:05;;;;;;;3.00;2.08;;;21.90;99.90;;;;;;4989011;28;20436;-72
2023/08/22 08:29:31;;;;;;;6.38;2.47;;;21.90;99.90;;;;;;4984487;28;20058;-72
2023/08/22 08:31:57;;;;;;;5.85;2.40;;;22.00;99.90;;;;;;4989724;28;20038;-72
2023/08/22 08:34:23;;;;;;;3.08;2.10;;;22.10;99.90;;;;;;4962791;28;20037;-72
2023/08/22 08:36:50;;;;;;;5.20;2.13;;;22.20;99.90;;;;;;4975943;28;20050;-72
2023/08/22 08:39:19;;;;;;;5.63;2.15;;;22.30;99.90;;;;;;4978996;28;20041;-73
2023/08/22 08:41:53;;;;;;;8.00;2.40;;;22.30;34.20;;;;;;4977544;28;20747;-73
2023/08/22 08:44:19;;;;;;;8.80;2.80;;;22.40;99.90;;;;;;4969899;28;20062;-72
2023/08/22 08:46:45;;;;;;;3.15;1.77;;;22.50;99.90;;;;;;4960376;28;20047;-73
2023/08/22 08:49:14;;;;;;;2.22;1.50;;;22.60;98.80;;;;;;4972679;28;20087;-71
2023/08/22 08:51:41;;;;;;;4.95;1.65;;;22.80;91.10;;;;;;4966631;28;20044;-72
2023/08/22 08:54:07;;;;;;;2.72;1.35;;;22.90;71.30;;;;;;4975207;28;20496;-73
2023/08/22 08:56:33;;;;;;;4.45;1.50;;;23.10;39.50;;;;;;4973331;28;20052;-72
2023/08/22 08:58:59;;;;;;;3.63;1.50;;;23.30;13.30;;;;;;4972351;28;20050;-73
2023/08/22 09:01:26;;;;;;;4.38;1.50;;;23.50;1.00;;;;;;4960615;28;20519;-72
2023/08/22 09:03:52;;;;;;;3.35;1.63;;;23.40;1.00;;;;;;4974541;28;20060;-72
2023/08/22 09:06:20;;;;;;;4.72;1.10;;;23.30;1.00;;;;;;4961567;28;20042;-72
2023/08/22 09:09:08;;;;;;;4.80;1.45;;;23.10;1.00;;;;;;4965885;28;20501;-73
2023/08/22 09:11:34;;;;;;;5.85;1.75;;;23.10;1.00;;;;;;4978194;28;20053;-72
2023/08/22 09:14:00;;;;;;;4.53;0.95;;;23.30;1.00;;;;;;4980037;28;20050;-72
2023/08/22 09:16:27;;;;;;;2.20;0.90;;;24.30;1.00;;;;;;4976439;28;20050;-72
2023/08/22 09:18:58;;;;;;;3.53;1.50;;;25.40;1.00;;;;;;4973126;28;20632;-72
2023/08/22 09:21:24;;;;;;;3.63;1.10;;;26.30;1.00;;;;;;4969466;28;20047;-73
2023/08/22 09:23:50;;;;;;;2.75;1.35;;;26.90;1.00;;;;;;4992422;28;20619;-73
2023/08/22 09:26:24;;;;;;;1.80;1.10;;;27.60;1.00;;;;;;4975998;28;20523;-73
2023/08/22 09:28:50;;;;;;;1.40;0.70;;;28.30;1.00;;;;;;4988061;28;20061;-73
2023/08/22 09:31:23;;;;;;;3.40;1.13;;;28.70;1.00;;;;;;4962248;28;21486;-73
2023/08/22 09:33:49;;;;;;;1.67;0.50;;;29.10;1.00;;;;;;4958587;28;20073;-72
2023/08/22 09:36:22;;;;;;;1.20;0.32;;;28.90;1.00;;;;;;4977699;28;20058;-73
2023/08/22 09:38:55;;;;;;;2.53;0.65;;;29.20;1.00;;;;;;4983570;28;20058;-73
2023/08/22 09:41:25;;;;;;;1.42;0.50;;;29.10;1.00;;;;;;4986894;28;20076;-72
2023/08/22 09:43:55;;;;;;;0.82;0.57;;;28.80;1.00;;;;;;4984135;28;20509;-73
2023/08/22 09:46:21;;;;;;;1.67;0.70;;;28.80;1.00;;;;;;4998320;28;20492;-72
2023/08/22 09:48:50;;;;;;;1.83;0.80;;;29.30;1.00;;;;;;4975719;28;20042;-72
2023/08/22 09:51:20;;;;;;;1.70;0.88;;;28.70;1.00;;;;;;4979911;28;20070;-72
2023/08/22 09:53:50;;;;;;;1.42;0.90;;;27.90;1.00;;;;;;4976318;28;20504;-71
2023/08/22 09:56:20;;;;;;;1.40;0.77;;;28.10;1.00;;;;;;4970634;28;20505;-72
2023/08/22 09:58:46;;;;;;;1.65;1.00;;;28.10;1.00;;;;;;4980639;28;20042;-72
2023/08/22 10:01:19;;;;;;;1.85;0.60;;;28.20;1.00;;;;;;4962547;28;20045;-72
2023/08/22 10:03:46;;;;;;;1.73;1.10;;;27.90;1.00;;;;;;4981546;28;20606;-70
2023/08/22 10:06:13;;;;;;;2.47;0.85;;;27.60;1.00;;;;;;4978483;28;20054;-72
2023/08/22 10:08:45;;;;;;;5.15;1.25;;;27.20;1.00;;;;;;4973141;28;20047;-71
2023/08/22 10:11:12;;;;;;;2.08;1.00;;;26.90;1.00;;;;;;4990861;28;20047;-72
2023/08/22 10:13:39;;;;;;;2.78;1.40;;;27.10;1.00;;;;;;4979695;28;20042;-71
2023/08/22 10:16:05;;;;;;;2.55;1.23;;;27.60;1.00;;;;;;4977137;28;20247;-72
2023/08/22 10:18:31;;;;;;;2.00;1.10;;;28.00;1.00;;;;;;4974789;28;20567;-72
2023/08/22 10:20:57;;;;;;;5.35;1.50;;;27.60;1.00;;;;;;4963733;28;20038;-72
2023/08/22 10:23:53;;;;;;;2.97;1.48;;;27.50;1.00;;;;;;4992561;28;20048;-72
2023/08/22 10:26:20;;;;;;;1.85;1.20;;;28.50;1.00;;;;;;4989259;28;20638;-73
2023/08/22 10:29:18;;;;;;;2.17;1.50;;;29.30;1.00;;;;;;4974388;28;20417;-70
2023/08/22 10:32:04;;;;;;;4.90;1.95;;;29.60;1.00;;;;;;4990098;28;20050;-73
2023/08/22 10:34:34;;;;;;;3.17;1.90;;;29.40;1.00;;;;;;4970692;28;20542;-73
2023/08/22 10:37:02;;;;;;;2.88;1.52;;;28.90;1.00;;;;;;4989818;28;20054;-73
2023/08/22 10:39:44;;;;;;;2.35;1.33;;;28.10;1.00;;;;;;4961211;28;20069;-72
2023/08/22 10:42:20;;;;;;;4.57;1.60;;;28.40;1.00;;;;;;4976640;28;20046;-72
2023/08/22 10:44:54;;;;;;;3.95;1.60;;;29.20;1.00;;;;;;4986078;28;20149;-73
2023/08/22 10:47:28;;;;;;;4.18;1.50;;;29.70;1.00;;;;;;4969096;28;20065;-72
2023/08/22 10:49:55;;;;;;;2.58;1.20;;;30.10;1.00;;;;;;4982425;28;20046;-72
2023/08/22 10:52:39;;;;;;;5.63;1.17;;;30.70;1.00;;;;;;4983321;28;20045;-71
2023/08/22 10:55:08;;;;;;;3.33;1.13;;;30.50;1.00;;;;;;4971764;28;20138;-72
2023/08/22 10:57:38;;;;;;;2.15;1.20;;;30.20;1.00;;;;;;4972089;28;20374;-72
2023/08/22 11:00:21;;;;;;;2.42;0.88;;;30.90;1.00;;;;;;4971401;28;20412;-73
2023/08/22 11:02:56;;;;;;;0.80;0.65;;;31.40;1.00;;;;;;4973500;28;20038;-72
2023/08/22 11:05:22;;;;;;;1.48;0.73;;;31.50;1.00;;;;;;4988903;28;20443;-72
2023/08/22 11:07:48;;;;;;;1.08;0.70;;;31.50;1.00;;;;;;4985204;28;20044;-72
2023/08/22 11:10:25;;;;;;;1.60;1.00;;;31.50;1.00;;;;;;4970519;28;20204;-73
2023/08/22 11:12:54;;;;;;;2.90;1.00;;;31.70;1.00;;;;;;5001855;28;20092;-72
2023/08/22 11:15:20;;;;;;;2.58;0.90;;;32.20;1.00;;;;;;4985046;28;20100;-72
2023/08/22 11:17:47;;;;;;;3.45;0.77;;;33.00;1.00;;;;;;4982222;28;20125;-73
2023/08/22 11:20:20;;;;;;;1.20;0.75;;;33.30;1.00;;;;;;4970330;28;20089;-73
2023/08/22 11:22:46;;;;;;;2.08;0.98;;;33.40;1.00;;;;;;4985345;28;20065;-72
2023/08/22 11:25:12;;;;;;;1.02;0.73;;;33.10;1.00;;;;;;4987291;28;20088;-73
2023/08/22 11:27:40;;;;;;;1.55;0.60;;;33.20;1.00;;;;;;4974046;28;20042;-73
2023/08/22 11:30:07;;;;;;;1.42;0.75;;;32.80;1.00;;;;;;4967416;28;20104;-73
2023/08/22 11:32:35;;;;;;;2.40;0.70;;;32.80;1.00;;;;;;4973548;28;20450;-74
2023/08/22 11:35:05;;;;;;;1.70;0.70;;;33.60;1.00;;;;;;4967608;28;20078;-73
2023/08/22 11:37:36;;;;;;;2.28;0.80;;;34.40;1.00;;;;;;4978490;28;20123;-73
2023/08/22 11:40:04;;;;;;;1.13;0.43;;;35.00;1.00;;;;;;4967695;28;20046;-73
2023/08/22 11:42:33;;;;;;;1.75;0.52;;;35.50;1.00;;;;;;4967298;28;20128;-73
2023/08/22 11:45:02;;;;;;;1.15;0.30;;;34.80;1.00;;;;;;4985446;28;20588;-72
2023/08/22 11:47:40;;;;;;;0.47;0.30;;;34.90;1.00;;;;;;5002176;28;20045;-72
2023/08/22 11:50:10;;;;;;;1.05;0.47;;;35.10;1.00;;;;;;5003265;28;20046;-72
2023/08/22 11:52:39;;;;;;;1.42;0.75;;;35.50;1.00;;;;;;4982604;28;20038;-72
2023/08/22 11:55:06;;;;;;;1.50;0.40;;;35.80;1.00;;;;;;4984070;28;20058;-73
2023/08/22 11:57:35;;;;;;;4.22;0.40;;;36.60;1.00;;;;;;4969621;28;20669;-73
2023/08/22 12:00:04;;;;;;;1.25;0.30;;;37.00;1.00;;;;;;4986741;28;20448;-72
2023/08/22 12:02:29;;;;;;;1.25;0.40;;;36.80;1.00;;;;;;4984502;28;20447;-72
2023/08/22 12:04:55;;;;;;;2.20;0.50;;;36.40;1.00;;;;;;4985182;28;20116;-73
2023/08/22 12:07:21;;;;;;;0.98;0.50;;;36.30;1.00;;;;;;4986344;28;20121;-73
2023/08/22 12:10:00;;;;;;;2.25;0.70;;;35.40;1.00;;;;;;4986174;28;20085;-73
2023/08/22 12:12:26;;;;;;;2.70;0.73;;;34.70;1.00;;;;;;4979142;28;20046;-73
2023/08/22 12:14:52;;;;;;;1.50;0.60;;;34.40;1.00;;;;;;4984464;28;20121;-74
2023/08/22 12:17:18;;;;;;;2.20;0.82;;;34.50;1.00;;;;;;4969876;28;20121;-74
2023/08/22 12:19:44;;;;;;;0.68;0.40;;;34.50;1.00;;;;;;4969902;28;20121;-73
2023/08/22 12:22:10;;;;;;;1.90;0.38;;;34.50;1.00;;;;;;4985306;28;20556;-73
2023/08/22 12:24:36;;;;;;;1.23;0.30;;;34.50;1.00;;;;;;4983865;28;20125;-73
2023/08/22 12:27:02;;;;;;;0.90;0.50;;;34.30;1.00;;;;;;4979498;28;20042;-75
2023/08/22 12:29:28;;;;;;;1.27;0.40;;;34.20;1.00;;;;;;4979807;28;20142;-73
2023/08/22 12:31:53;;;;;;;1.73;0.40;;;33.90;1.00;;;;;;4990309;28;20158;-73
2023/08/22 12:34:19;;;;;;;1.05;0.40;;;33.90;1.00;;;;;;4981348;28;20133;-74
2023/08/22 12:36:45;;;;;;;2.45;0.60;;;33.40;1.00;;;;;;4984887;28;20049;-73
2023/08/22 12:39:11;;;;;;;2.88;0.70;;;33.40;1.00;;;;;;4963149;28;20497;-72
2023/08/22 12:41:40;;;;;;;2.90;0.60;;;33.60;1.00;;;;;;4982917;28;20050;-74
2023/08/22 12:44:06;;;;;;;3.65;0.73;;;33.80;1.00;;;;;;4985602;28;20513;-73
2023/08/22 12:46:32;;;;;;;1.33;0.73;;;33.70;1.00;;;;;;4983524;28;20046;-74
2023/08/22 12:48:58;;;;;;;1.23;0.50;;;34.00;1.00;;;;;;4993681;28;20038;-74
2023/08/22 12:51:23;;;;;;;1.52;0.50;;;34.70;1.00;;;;;;4967213;28;20112;-73
2023/08/22 12:53:49;;;;;;;3.85;0.85;;;35.10;1.00;;;;;;4965833;28;20045;-74